createdAt,value
2019-01-09T00:01:16.900Z,96.20
2019-01-09T00:03:44.561Z,95.60
2019-01-09T00:06:12.839Z,97.10
2019-01-09T00:08:42.780Z,96.40
2019-01-09T00:11:10.669Z,96.80
2019-01-09T00:13:38.788Z,96.80
2019-01-09T00:16:06.791Z,96.40
2019-01-09T00:18:35.170Z,97.40
2019-01-09T00:21:03.464Z,97.20
2019-01-09T00:23:30.896Z,97.50
2019-01-09T00:25:58.672Z,97.60
2019-01-09T00:28:26.462Z,97.10
2019-01-09T00:30:53.938Z,96.20
2019-01-09T00:33:21.895Z,96.60
2019-01-09T00:35:49.817Z,96.70
2019-01-09T00:38:17.866Z,96.70
2019-01-09T00:40:45.297Z,97.50
2019-01-09T00:43:13.346Z,96.70
2019-01-09T00:45:42.650Z,96.90
2019-01-09T00:48:11.262Z,96.60
2019-01-09T00:50:39.173Z,96.30
2019-01-09T00:53:06.896Z,96.70
2019-01-09T00:55:34.796Z,96.90
2019-01-09T00:58:02.800Z,97.20
2019-01-09T01:00:32.103Z,97.30
2019-01-09T01:03:44.270Z,97.70
2019-01-09T01:06:52.246Z,97.80
2019-01-09T01:09:58.053Z,98.10
2019-01-09T01:13:13.541Z,98.20
2019-01-09T01:16:34.437Z,98.10
2019-01-09T01:19:35.330Z,98.30
2019-01-09T01:22:46.796Z,97.80
2019-01-09T01:25:29.826Z,97.90
2019-01-09T01:28:20.513Z,97.90
2019-01-09T01:31:25.241Z,98.00
2019-01-09T01:34:19.581Z,98.00
2019-01-09T01:37:22.833Z,97.90
2019-01-09T01:40:26.441Z,97.80
2019-01-09T01:43:22.917Z,97.70
2019-01-09T01:46:30.209Z,97.80
2019-01-09T01:49:30.993Z,97.50
2019-01-09T01:52:46.480Z,97.50
2019-01-09T01:55:37.839Z,97.50
2019-01-09T01:58:56.566Z,97.80
2019-01-09T02:02:06.469Z,98.00
2019-01-09T02:05:17.513Z,98.10
2019-01-09T02:08:09.613Z,98.00
2019-01-09T02:11:25.670Z,98.00
2019-01-09T02:14:53.445Z,98.00
2019-01-09T02:17:39.261Z,97.80
2019-01-09T02:20:54.192Z,98.40
2019-01-09T02:24:00.926Z,98.20
2019-01-09T02:26:44.253Z,98.10
2019-01-09T02:29:39.151Z,98.00
2019-01-09T02:32:29.743Z,98.10
2019-01-09T02:35:02.386Z,98.30
2019-01-09T02:37:31.004Z,98.00
2019-01-09T02:39:58.530Z,98.20
2019-01-09T02:42:27.385Z,98.20
2019-01-09T02:44:55.724Z,98.10
2019-01-09T02:47:24.281Z,98.10
2019-01-09T02:49:52.772Z,97.80
2019-01-09T02:52:20.474Z,97.90
2019-01-09T02:54:48.327Z,97.70
2019-01-09T02:57:15.880Z,97.60
2019-01-09T02:59:43.459Z,97.40
2019-01-09T03:02:11.308Z,97.40
2019-01-09T03:04:38.749Z,97.30
2019-01-09T03:07:06.543Z,97.50
2019-01-09T03:09:34.319Z,97.60
2019-01-09T03:12:01.763Z,97.30
2019-01-09T03:14:30.302Z,96.90
2019-01-09T03:16:58.203Z,97.00
2019-01-09T03:19:25.661Z,97.40
2019-01-09T03:21:53.894Z,97.00
2019-01-09T03:24:21.386Z,96.90
2019-01-09T03:26:49.178Z,96.70
2019-01-09T03:29:17.271Z,96.50
2019-01-09T03:31:45.389Z,96.10
2019-01-09T03:34:13.143Z,96.40
2019-01-09T03:36:41.121Z,95.90
2019-01-09T03:39:09.066Z,96.10
2019-01-09T03:41:37.194Z,95.90
2019-01-09T03:44:05.382Z,95.40
2019-01-09T03:46:32.808Z,95.20
2019-01-09T03:49:02.022Z,95.40
2019-01-09T03:51:30.353Z,95.50
2019-01-09T03:53:58.866Z,95.10
2019-01-09T03:56:27.730Z,94.90
2019-01-09T03:58:55.566Z,95.10
2019-01-09T04:01:23.682Z,94.70
2019-01-09T04:03:51.559Z,94.10
2019-01-09T04:06:19.139Z,94.10
2019-01-09T04:08:47.732Z,94.40
2019-01-09T04:11:15.542Z,93.80
2019-01-09T04:13:43.905Z,93.80
2019-01-09T04:16:12.332Z,94.70
2019-01-09T04:18:40.058Z,95.60
2019-01-09T04:21:07.673Z,96.40
2019-01-09T04:23:35.485Z,96.40
2019-01-09T04:26:03.476Z,96.70
2019-01-09T04:28:31.621Z,97.20
2019-01-09T04:30:59.186Z,96.90
2019-01-09T04:33:32.036Z,98.10
2019-01-09T04:36:00.195Z,97.90
2019-01-09T04:38:30.489Z,98.80
2019-01-09T04:40:58.538Z,99.70
2019-01-09T04:43:26.663Z,99.90
2019-01-09T04:45:54.710Z,99.90
2019-01-09T04:48:22.563Z,99.90
2019-01-09T04:50:50.579Z,99.90
2019-01-09T04:53:18.110Z,99.90
2019-01-09T04:55:45.903Z,99.90
2019-01-09T04:58:15.348Z,99.90
2019-01-09T05:03:13.725Z,99.90
2019-01-09T05:05:42.225Z,99.90
2019-01-09T05:08:11.066Z,99.90
2019-01-09T05:10:39.481Z,99.90
2019-01-09T05:13:08.247Z,99.90
2019-01-09T05:15:36.484Z,99.90
2019-01-09T05:18:05.830Z,99.90
2019-01-09T05:20:33.933Z,99.90
2019-01-09T05:23:01.905Z,99.90
2019-01-09T05:25:29.829Z,99.90
2019-01-09T05:27:57.324Z,99.90
2019-01-09T05:30:25.134Z,99.90
2019-01-09T05:32:52.935Z,99.90
2019-01-09T05:35:21.093Z,99.90
2019-01-09T05:37:49.381Z,99.90
2019-01-09T05:40:16.833Z,99.90
2019-01-09T05:42:44.658Z,99.90
2019-01-09T05:45:13.378Z,98.30
2019-01-09T05:47:41.560Z,98.50
2019-01-09T05:50:09.400Z,98.10
2019-01-09T05:52:37.150Z,98.10
2019-01-09T05:55:04.954Z,98.60
2019-01-09T05:57:32.978Z,97.50
2019-01-09T06:00:01.058Z,98.70
2019-01-09T06:02:28.843Z,99.30
2019-01-09T06:04:56.891Z,99.50
2019-01-09T06:07:25.018Z,99.50
2019-01-09T06:09:53.198Z,99.50
2019-01-09T06:12:21.297Z,99.60
2019-01-09T06:14:49.039Z,99.10
2019-01-09T06:17:17.141Z,99.70
2019-01-09T06:19:44.634Z,98.10
2019-01-09T06:22:13.194Z,98.30
2019-01-09T06:24:41.087Z,97.60
2019-01-09T06:27:09.046Z,97.40
2019-01-09T06:29:37.140Z,97.60
2019-01-09T06:32:05.022Z,97.00
2019-01-09T06:34:32.525Z,97.00
2019-01-09T06:37:00.871Z,96.00
2019-01-09T06:39:29.306Z,96.30
2019-01-09T06:41:57.375Z,96.20
2019-01-09T06:44:24.907Z,94.80
2019-01-09T06:46:52.345Z,95.70
2019-01-09T06:49:20.674Z,96.40
2019-01-09T06:51:48.301Z,96.70
2019-01-09T06:54:15.769Z,95.50
2019-01-09T06:56:43.943Z,96.00
2019-01-09T06:59:11.800Z,96.60
2019-01-09T07:01:40.326Z,96.70
2019-01-09T07:04:08.417Z,96.50
2019-01-09T07:06:36.265Z,95.80
2019-01-09T07:09:04.942Z,95.60
2019-01-09T07:11:32.662Z,95.90
2019-01-09T07:14:01.029Z,95.50
2019-01-09T07:16:29.621Z,95.40
2019-01-09T07:18:57.064Z,95.50
2019-01-09T07:21:24.630Z,95.50
2019-01-09T07:23:52.606Z,95.40
2019-01-09T07:26:20.720Z,95.40
2019-01-09T07:28:48.550Z,94.80
2019-01-09T07:31:16.783Z,95.30
2019-01-09T07:33:44.236Z,96.00
2019-01-09T07:36:12.794Z,95.50
2019-01-09T07:38:40.718Z,96.50
2019-01-09T07:41:08.462Z,95.80
2019-01-09T07:43:36.930Z,96.00
2019-01-09T07:46:04.766Z,96.30
2019-01-09T07:48:32.197Z,96.00
2019-01-09T07:51:00.004Z,96.40
2019-01-09T07:53:27.801Z,96.10
2019-01-09T07:55:55.751Z,96.30
2019-01-09T07:58:23.758Z,96.30
2019-01-09T08:00:51.230Z,96.20
2019-01-09T08:03:19.684Z,96.00
2019-01-09T08:05:48.078Z,95.60
2019-01-09T08:08:16.246Z,95.60
2019-01-09T08:10:43.720Z,96.20
2019-01-09T08:13:11.163Z,96.70
2019-01-09T08:15:38.893Z,95.70
2019-01-09T08:18:06.465Z,96.20
2019-01-09T08:20:33.896Z,95.60
2019-01-09T08:23:01.511Z,95.10
2019-01-09T08:25:29.353Z,95.50
2019-01-09T08:27:56.783Z,95.20
2019-01-09T08:30:24.682Z,95.30
2019-01-09T08:32:52.146Z,95.20
2019-01-09T08:35:19.601Z,95.00
2019-01-09T08:37:47.049Z,93.50
2019-01-09T08:40:15.925Z,93.60
2019-01-09T08:42:43.693Z,93.50
2019-01-09T08:45:11.515Z,93.70
2019-01-09T08:47:39.015Z,93.90
2019-01-09T08:50:07.526Z,93.60
2019-01-09T08:52:34.951Z,94.30
2019-01-09T08:55:02.508Z,93.30
2019-01-09T08:57:30.346Z,93.30
2019-01-09T08:59:58.314Z,92.60
2019-01-09T09:02:26.444Z,92.70
2019-01-09T09:04:54.178Z,93.90
2019-01-09T09:07:24.273Z,93.90
2019-01-09T09:09:51.778Z,92.20
2019-01-09T09:12:19.234Z,91.80
2019-01-09T09:14:46.668Z,93.60
2019-01-09T09:17:14.115Z,92.80
2019-01-09T09:19:42.186Z,93.70
2019-01-09T09:22:09.615Z,94.10
2019-01-09T09:24:37.410Z,92.90
2019-01-09T09:27:04.970Z,92.70
2019-01-09T09:29:32.403Z,92.70
2019-01-09T09:32:00.249Z,92.30
2019-01-09T09:34:28.742Z,92.60
2019-01-09T09:36:56.557Z,92.50
2019-01-09T09:39:24.436Z,92.00
2019-01-09T09:41:52.361Z,91.50
2019-01-09T09:44:20.186Z,91.80
2019-01-09T09:46:48.058Z,91.20
2019-01-09T09:49:16.998Z,91.30
2019-01-09T09:51:45.155Z,92.00
2019-01-09T09:54:13.034Z,91.20
2019-01-09T09:56:41.222Z,90.40
2019-01-09T09:59:08.954Z,90.20
2019-01-09T10:01:36.823Z,91.30
2019-01-09T10:04:04.633Z,91.50
2019-01-09T10:06:32.063Z,91.10
2019-01-09T10:08:59.934Z,89.40
2019-01-09T10:11:27.453Z,90.90
2019-01-09T10:13:55.178Z,88.90
2019-01-09T10:16:22.602Z,90.30
2019-01-09T10:18:50.181Z,88.90
2019-01-09T10:21:17.609Z,87.60
2019-01-09T10:23:45.493Z,86.90
2019-01-09T10:26:13.442Z,85.90
2019-01-09T10:28:41.768Z,87.10
2019-01-09T10:31:09.964Z,86.00
2019-01-09T10:33:38.183Z,84.60
2019-01-09T10:36:06.121Z,85.80
2019-01-09T10:38:38.182Z,83.10
2019-01-09T10:41:03.082Z,86.10
2019-01-09T10:43:30.530Z,81.10
2019-01-09T10:45:58.304Z,83.70
2019-01-09T10:48:25.839Z,80.60
2019-01-09T10:50:53.286Z,80.00
2019-01-09T10:53:20.721Z,81.00
2019-01-09T10:55:48.914Z,78.20
2019-01-09T10:58:16.716Z,77.00
2019-01-09T11:00:44.286Z,80.60
2019-01-09T11:03:11.734Z,79.10
2019-01-09T11:05:39.177Z,78.30
2019-01-09T11:08:06.702Z,77.90
2019-01-09T11:10:35.488Z,75.90
2019-01-09T11:13:02.936Z,77.10
2019-01-09T11:15:30.354Z,76.50
2019-01-09T11:17:58.774Z,77.10
2019-01-09T11:20:26.674Z,76.40
2019-01-09T11:22:54.445Z,77.60
2019-01-09T11:25:25.077Z,79.00
2019-01-09T11:27:52.905Z,79.90
2019-01-09T11:30:20.433Z,79.80
2019-01-09T11:32:48.391Z,81.70
2019-01-09T11:35:17.093Z,81.00
2019-01-09T11:37:45.458Z,80.60
2019-01-09T11:40:14.743Z,81.70
2019-01-09T11:42:42.797Z,81.80
2019-01-09T11:45:11.838Z,82.00
2019-01-09T11:47:39.326Z,82.20
2019-01-09T11:50:07.562Z,82.40
2019-01-09T11:52:35.351Z,84.40
2019-01-09T11:55:04.239Z,84.90
2019-01-09T11:57:32.065Z,84.00
2019-01-09T11:59:59.867Z,84.20
2019-01-09T12:02:27.675Z,85.30
2019-01-09T12:04:55.514Z,84.50
2019-01-09T12:07:23.274Z,84.40
2019-01-09T12:09:51.248Z,84.40
2019-01-09T12:12:19.141Z,84.40
2019-01-09T12:14:46.718Z,84.70
2019-01-09T12:17:14.178Z,83.70
2019-01-09T12:19:42.031Z,84.00
2019-01-09T12:22:09.831Z,83.70
2019-01-09T12:24:37.997Z,84.00
2019-01-09T12:27:05.549Z,83.80
2019-01-09T12:29:33.336Z,82.70
2019-01-09T12:32:00.711Z,81.70
2019-01-09T12:34:28.758Z,81.50
2019-01-09T12:36:56.721Z,80.60
2019-01-09T12:39:24.299Z,80.80
2019-01-09T12:41:52.390Z,81.20
2019-01-09T12:44:20.247Z,79.50
2019-01-09T12:46:47.697Z,80.20
2019-01-09T12:49:15.479Z,79.60
2019-01-09T12:51:43.359Z,79.00
2019-01-09T12:54:11.143Z,80.30
2019-01-09T12:56:39.274Z,79.80
2019-01-09T12:59:06.757Z,79.80
2019-01-09T13:01:34.537Z,79.60
2019-01-09T13:04:02.598Z,79.80
2019-01-09T13:06:30.110Z,82.00
2019-01-09T13:08:57.949Z,81.10
2019-01-09T13:11:25.425Z,82.80
2019-01-09T13:13:53.535Z,82.10
2019-01-09T13:16:20.996Z,83.20
2019-01-09T13:18:49.118Z,82.70
2019-01-09T13:21:17.249Z,82.60
2019-01-09T13:23:45.077Z,83.00
2019-01-09T13:26:13.002Z,81.30
2019-01-09T13:28:40.809Z,81.80
2019-01-09T13:31:08.274Z,81.30
2019-01-09T13:33:35.693Z,82.00
2019-01-09T13:36:03.762Z,81.90
2019-01-09T13:38:31.545Z,81.20
2019-01-09T13:40:58.964Z,80.60
2019-01-09T13:43:26.813Z,80.80
2019-01-09T13:45:54.698Z,80.40
2019-01-09T13:48:22.217Z,81.10
2019-01-09T13:50:49.945Z,81.00
2019-01-09T13:53:17.781Z,81.90
2019-01-09T13:55:45.667Z,81.00
2019-01-09T13:58:13.690Z,80.70
2019-01-09T14:00:41.196Z,81.00
2019-01-09T14:03:09.002Z,81.00
2019-01-09T14:05:36.842Z,81.30
2019-01-09T14:08:04.724Z,81.50
2019-01-09T14:10:32.168Z,81.70
2019-01-09T14:13:00.247Z,82.50
2019-01-09T14:15:27.978Z,82.10
2019-01-09T14:17:55.780Z,81.90
2019-01-09T14:20:24.183Z,81.40
2019-01-09T14:22:51.637Z,81.50
2019-01-09T14:25:19.458Z,80.90
2019-01-09T14:27:47.405Z,81.40
2019-01-09T14:30:20.342Z,81.80
2019-01-09T14:32:48.138Z,81.70
2019-01-09T14:35:16.032Z,82.10
2019-01-09T14:37:43.502Z,81.40
2019-01-09T14:40:12.903Z,80.90
2019-01-09T14:42:40.862Z,80.90
2019-01-09T14:45:09.398Z,80.70
2019-01-09T14:47:36.838Z,81.20
2019-01-09T14:50:10.346Z,81.20
2019-01-09T14:52:37.774Z,81.10
2019-01-09T14:55:05.842Z,80.50
2019-01-09T14:57:33.606Z,81.20
2019-01-09T15:00:01.164Z,81.70
2019-01-09T15:02:29.175Z,81.90
2019-01-09T15:04:56.911Z,82.20
2019-01-09T15:07:24.664Z,82.50
2019-01-09T15:09:56.795Z,81.60
2019-01-09T15:12:21.758Z,82.50
2019-01-09T15:14:50.358Z,83.20
2019-01-09T15:17:18.530Z,83.70
2019-01-09T15:19:46.121Z,84.40
2019-01-09T15:22:13.883Z,84.00
2019-01-09T15:24:41.746Z,85.00
2019-01-09T15:27:09.477Z,84.90
2019-01-09T15:29:37.329Z,85.40
2019-01-09T15:32:05.150Z,85.60
2019-01-09T15:34:32.750Z,86.50
2019-01-09T15:37:00.582Z,86.20
2019-01-09T15:39:28.349Z,86.50
2019-01-09T15:41:56.347Z,86.70
2019-01-09T15:44:23.934Z,87.40
2019-01-09T15:46:51.514Z,87.10
2019-01-09T15:49:18.997Z,87.60
2019-01-09T15:51:46.430Z,89.70
2019-01-09T15:54:14.034Z,89.70
2019-01-09T15:56:42.070Z,90.00
2019-01-09T15:59:10.558Z,90.10
2019-01-09T16:01:38.399Z,90.40
2019-01-09T16:04:06.261Z,90.80
2019-01-09T16:06:34.438Z,91.10
2019-01-09T16:09:02.301Z,91.40
2019-01-09T16:11:29.735Z,92.10
2019-01-09T16:13:57.526Z,92.30
2019-01-09T16:16:25.824Z,92.70
2019-01-09T16:18:53.242Z,92.90
2019-01-09T16:21:21.465Z,93.70
2019-01-09T16:23:49.633Z,94.10
2019-01-09T16:26:17.125Z,94.20
2019-01-09T16:28:44.766Z,94.70
2019-01-09T16:31:22.297Z,94.80
2019-01-09T16:33:50.328Z,95.00
2019-01-09T16:36:17.887Z,95.20
2019-01-09T16:38:45.784Z,95.20
2019-01-09T16:41:14.230Z,95.40
2019-01-09T16:43:41.677Z,95.80
2019-01-09T16:46:09.470Z,95.90
2019-01-09T16:48:37.178Z,96.00
2019-01-09T16:51:04.911Z,95.80
2019-01-09T16:53:32.400Z,95.90
2019-01-09T16:56:00.193Z,95.60
2019-01-09T17:01:01.824Z,95.30
2019-01-09T17:03:29.386Z,95.30
2019-01-09T17:05:59.558Z,95.10
2019-01-09T17:08:27.573Z,94.90
2019-01-09T17:10:55.165Z,95.10
2019-01-09T17:13:22.615Z,95.20
2019-01-09T17:15:50.699Z,95.30
2019-01-09T17:18:18.502Z,95.00
2019-01-09T17:20:46.501Z,95.00
2019-01-09T17:23:14.339Z,95.20
2019-01-09T17:25:41.807Z,95.30
2019-01-09T17:28:10.755Z,94.90
2019-01-09T17:30:39.360Z,94.60
2019-01-09T17:33:07.393Z,94.60
2019-01-09T17:35:35.385Z,94.30
2019-01-09T17:38:03.945Z,94.50
2019-01-09T17:40:40.691Z,94.20
2019-01-09T17:43:02.487Z,94.30
2019-01-09T17:45:30.521Z,94.10
2019-01-09T17:47:58.881Z,93.70
2019-01-09T17:50:29.233Z,93.80
2019-01-09T17:52:56.862Z,93.80
2019-01-09T17:55:24.746Z,93.70
2019-01-09T17:57:53.276Z,93.60
2019-01-09T18:00:26.318Z,93.60
2019-01-09T18:02:54.363Z,93.60
2019-01-09T18:05:22.768Z,93.30
2019-01-09T18:07:52.169Z,93.30
2019-01-09T18:10:20.990Z,93.50
2019-01-09T18:12:49.133Z,93.40
2019-01-09T18:15:21.502Z,93.20
2019-01-09T18:17:49.150Z,93.50
2019-01-09T18:20:17.727Z,93.10
2019-01-09T18:22:45.712Z,93.00
2019-01-09T18:25:15.698Z,93.00
2019-01-09T18:27:44.783Z,92.40
2019-01-09T18:30:43.485Z,93.20
2019-01-09T18:33:29.680Z,92.50
2019-01-09T18:36:22.961Z,92.60
2019-01-09T18:39:57.060Z,92.40
2019-01-09T18:43:04.992Z,92.40
2019-01-09T18:45:52.817Z,92.20
2019-01-09T18:49:04.166Z,92.30
2019-01-09T18:51:59.862Z,92.50
2019-01-09T18:54:27.728Z,92.40
2019-01-09T18:56:56.022Z,92.60
2019-01-09T18:59:24.940Z,92.80
2019-01-09T19:01:53.527Z,92.50
2019-01-09T19:04:21.589Z,92.10
2019-01-09T19:06:49.885Z,92.00
2019-01-09T19:09:22.177Z,92.00
2019-01-09T19:11:51.296Z,91.60
2019-01-09T19:14:21.349Z,91.60
2019-01-09T19:16:49.767Z,91.60
2019-01-09T19:19:17.948Z,91.80
2019-01-09T19:21:49.926Z,91.80
2019-01-09T19:24:18.376Z,91.50
2019-01-09T19:26:46.800Z,91.30
2019-01-09T19:29:15.156Z,91.60
2019-01-09T19:31:43.619Z,91.30
2019-01-09T19:34:11.608Z,91.40
2019-01-09T19:36:39.766Z,91.40
2019-01-09T19:39:08.939Z,91.40
2019-01-09T19:41:37.423Z,91.60
2019-01-09T19:44:05.770Z,91.50
2019-01-09T19:46:36.856Z,91.30
2019-01-09T19:49:05.883Z,90.80
2019-01-09T19:51:34.176Z,91.10
2019-01-09T19:54:03.052Z,91.00
2019-01-09T19:56:31.578Z,90.90
2019-01-09T19:58:59.930Z,91.10
2019-01-09T20:01:28.457Z,90.90
2019-01-09T20:03:57.357Z,90.80
2019-01-09T20:06:25.462Z,90.70
2019-01-09T20:08:53.852Z,90.80
2019-01-09T20:11:26.624Z,90.80
2019-01-09T20:13:52.883Z,90.70
2019-01-09T20:16:21.762Z,90.90
2019-01-09T20:18:50.354Z,90.80
2019-01-09T20:21:18.154Z,91.00
2019-01-09T20:23:48.181Z,90.90
2019-01-09T20:26:16.718Z,90.90
2019-01-09T20:28:45.419Z,91.00
2019-01-09T20:31:14.780Z,91.00
2019-01-09T20:33:43.363Z,91.00
2019-01-09T20:36:11.915Z,90.70
2019-01-09T20:38:51.862Z,90.70
2019-01-09T20:41:20.148Z,90.70
2019-01-09T20:43:49.280Z,90.80
2019-01-09T20:46:18.263Z,90.70
2019-01-09T20:48:46.615Z,90.80
2019-01-09T20:51:14.773Z,90.80
2019-01-09T20:53:43.596Z,90.80
2019-01-09T20:56:12.311Z,90.90
2019-01-09T20:58:41.931Z,90.80
2019-01-09T21:01:10.400Z,90.80
2019-01-09T21:03:38.971Z,90.80
2019-01-09T21:06:09.363Z,90.60
2019-01-09T21:08:39.298Z,90.60
2019-01-09T21:11:07.471Z,90.80
2019-01-09T21:13:35.902Z,90.90
2019-01-09T21:16:04.791Z,90.60
2019-01-09T21:18:32.767Z,90.70
2019-01-09T21:21:02.766Z,90.80
2019-01-09T21:23:31.412Z,90.90
2019-01-09T21:25:59.667Z,91.00
2019-01-09T21:28:28.612Z,91.40
2019-01-09T21:30:57.399Z,91.50
2019-01-09T21:33:25.525Z,91.80
2019-01-09T21:35:54.056Z,92.10
2019-01-09T21:38:22.750Z,92.40
2019-01-09T21:40:53.146Z,92.60
2019-01-09T21:43:21.574Z,93.00
2019-01-09T21:45:50.057Z,93.40
2019-01-09T21:48:18.163Z,93.90
2019-01-09T21:50:47.723Z,94.00
2019-01-09T21:53:17.193Z,93.90
2019-01-09T21:55:48.239Z,94.00
2019-01-09T21:58:17.028Z,94.10
2019-01-09T22:00:45.816Z,94.60
2019-01-09T22:03:14.502Z,94.50
2019-01-09T22:05:44.072Z,94.80
2019-01-09T22:08:12.266Z,95.10
2019-01-09T22:10:41.121Z,95.30
2019-01-09T22:13:09.635Z,95.40
2019-01-09T22:15:38.694Z,95.60
2019-01-09T22:18:06.924Z,95.70
2019-01-09T22:20:35.311Z,95.70
2019-01-09T22:23:03.266Z,95.60
2019-01-09T22:25:31.899Z,95.50
2019-01-09T22:27:59.996Z,95.90
2019-01-09T22:30:28.294Z,95.90
2019-01-09T22:32:56.686Z,96.40
2019-01-09T22:35:25.017Z,96.50
2019-01-09T22:37:53.259Z,96.80
2019-01-09T22:40:22.397Z,96.70
2019-01-09T22:42:50.211Z,97.00
2019-01-09T22:45:18.727Z,97.20
2019-01-09T22:47:46.566Z,96.70
2019-01-09T22:50:16.736Z,96.70
2019-01-09T22:52:44.509Z,97.00
2019-01-09T22:55:12.410Z,96.50
2019-01-09T22:57:39.934Z,96.30
2019-01-09T23:00:40.236Z,96.30
2019-01-09T23:03:08.753Z,96.00
2019-01-09T23:05:38.043Z,95.60
2019-01-09T23:08:06.489Z,95.70
2019-01-09T23:10:34.499Z,95.50
2019-01-09T23:13:03.123Z,95.30
2019-01-09T23:15:31.041Z,95.00
2019-01-09T23:17:59.021Z,95.30
2019-01-09T23:20:27.881Z,94.80
2019-01-09T23:22:55.978Z,94.50
2019-01-09T23:25:23.462Z,94.80
2019-01-09T23:27:51.688Z,94.70
2019-01-09T23:30:19.621Z,94.50
2019-01-09T23:32:47.816Z,94.40
2019-01-09T23:35:16.061Z,94.50
2019-01-09T23:37:43.611Z,94.00
2019-01-09T23:40:11.617Z,94.60
2019-01-09T23:42:39.734Z,94.20
2019-01-09T23:45:09.046Z,94.00
2019-01-09T23:47:37.358Z,93.60
2019-01-09T23:50:05.458Z,93.70
2019-01-09T23:52:33.122Z,93.20
2019-01-09T23:55:00.583Z,93.60
2019-01-09T23:57:28.642Z,93.40
2019-01-09T23:59:56.970Z,93.50
